createdAt,value
2019-02-18T00:02:10.706Z,12.20
2019-02-18T00:04:39.186Z,14.40
2019-02-18T00:07:14.201Z,13.73
2019-02-18T00:09:37.806Z,11.20
2019-02-18T00:12:06.302Z,10.47
2019-02-18T00:14:34.703Z,12.13
2019-02-18T00:17:03.173Z,11.07
2019-02-18T00:19:31.573Z,9.23
2019-02-18T00:22:00.004Z,10.10
2019-02-18T00:24:28.498Z,11.33
2019-02-18T00:26:56.894Z,10.00
2019-02-18T00:29:25.379Z,10.90
2019-02-18T00:31:53.791Z,12.03
2019-02-18T00:34:22.191Z,8.10
2019-02-18T00:36:50.583Z,9.30
2019-02-18T00:39:19.028Z,8.73
2019-02-18T00:41:49.312Z,10.43
2019-02-18T00:44:17.599Z,9.77
2019-02-18T00:46:46.011Z,11.93
2019-02-18T00:49:14.421Z,11.80
2019-02-18T00:51:42.817Z,8.50
2019-02-18T00:54:11.274Z,11.23
2019-02-18T00:56:39.670Z,12.00
2019-02-18T00:59:08.143Z,9.57
2019-02-18T01:01:36.555Z,10.07
2019-02-18T01:04:05.001Z,11.63
2019-02-18T01:06:33.400Z,9.77
2019-02-18T01:09:01.816Z,13.03
2019-02-18T01:11:30.246Z,12.67
2019-02-18T01:13:58.671Z,11.63
2019-02-18T01:16:27.070Z,14.30
2019-02-18T01:18:55.482Z,12.43
2019-02-18T01:21:23.874Z,10.13
2019-02-18T01:23:52.287Z,12.03
2019-02-18T01:26:20.682Z,12.33
2019-02-18T01:28:49.110Z,10.97
2019-02-18T01:31:17.508Z,11.23
2019-02-18T01:33:45.907Z,12.63
2019-02-18T01:36:14.323Z,12.27
2019-02-18T01:38:43.006Z,13.67
2019-02-18T01:41:11.411Z,12.30
2019-02-18T01:43:40.094Z,16.53
2019-02-18T01:46:08.577Z,12.27
2019-02-18T01:48:37.103Z,15.70
2019-02-18T01:51:05.520Z,11.77
2019-02-18T01:53:33.910Z,14.03
2019-02-18T01:56:02.323Z,14.50
2019-02-18T01:58:30.723Z,11.20
2019-02-18T02:00:59.136Z,14.10
2019-02-18T02:03:27.563Z,14.23
2019-02-18T02:05:56.022Z,11.67
2019-02-18T02:08:24.494Z,14.83
2019-02-18T02:10:52.903Z,12.23
2019-02-18T02:13:32.886Z,14.67
2019-02-18T02:16:02.335Z,10.80
2019-02-18T02:18:30.734Z,10.83
2019-02-18T02:20:59.510Z,13.43
2019-02-18T02:23:27.918Z,14.37
2019-02-18T02:25:56.314Z,15.00
2019-02-18T02:28:24.730Z,18.03
2019-02-18T02:30:53.137Z,18.33
2019-02-18T02:33:21.565Z,16.50
2019-02-18T02:35:49.969Z,14.33
2019-02-18T02:38:18.446Z,13.80
2019-02-18T02:40:47.060Z,14.47
2019-02-18T02:43:15.446Z,15.87
2019-02-18T02:45:43.894Z,16.73
2019-02-18T02:48:12.299Z,17.13
2019-02-18T02:50:40.699Z,17.37
2019-02-18T02:53:09.086Z,16.60
2019-02-18T02:55:37.528Z,14.67
2019-02-18T02:58:05.923Z,11.27
2019-02-18T03:00:34.372Z,14.73
2019-02-18T03:03:02.801Z,12.53
2019-02-18T03:05:31.196Z,8.60
2019-02-18T03:07:59.598Z,13.67
2019-02-18T03:10:27.998Z,12.67
2019-02-18T03:12:56.460Z,14.60
2019-02-18T03:15:25.155Z,14.90
2019-02-18T03:17:53.558Z,15.83
2019-02-18T03:20:21.959Z,14.93
2019-02-18T03:22:50.367Z,18.60
2019-02-18T03:25:23.682Z,18.93
2019-02-18T03:27:58.071Z,14.70
2019-02-18T03:30:38.584Z,13.37
2019-02-18T03:33:09.735Z,15.47
2019-02-18T03:35:38.148Z,15.80
2019-02-18T03:38:06.540Z,18.63
2019-02-18T03:40:35.445Z,13.73
2019-02-18T03:43:03.843Z,17.67
2019-02-18T03:45:32.311Z,16.73
2019-02-18T03:48:00.725Z,16.90
2019-02-18T03:50:29.123Z,16.40
2019-02-18T03:52:57.536Z,16.17
2019-02-18T03:55:25.997Z,15.83
2019-02-18T03:57:54.418Z,20.63
2019-02-18T04:00:22.833Z,16.53
2019-02-18T04:02:54.246Z,14.50
2019-02-18T04:05:22.662Z,19.33
2019-02-18T04:07:51.057Z,14.17
2019-02-18T04:10:19.466Z,12.73
2019-02-18T04:12:47.966Z,12.93
2019-02-18T04:15:17.431Z,16.60
2019-02-18T04:17:45.842Z,15.70
2019-02-18T04:20:14.242Z,16.30
2019-02-18T04:22:42.645Z,15.00
2019-02-18T04:25:11.051Z,13.83
2019-02-18T04:27:39.450Z,12.40
2019-02-18T04:30:10.463Z,15.40
2019-02-18T04:32:38.863Z,15.20
2019-02-18T04:35:08.510Z,14.73
2019-02-18T04:37:37.100Z,14.03
2019-02-18T04:40:07.535Z,14.23
2019-02-18T04:42:35.951Z,14.67
2019-02-18T04:45:06.400Z,13.90
2019-02-18T04:47:34.801Z,13.47
2019-02-18T04:50:03.205Z,12.97
2019-02-18T04:52:31.618Z,11.33
2019-02-18T04:55:00.101Z,18.70
2019-02-18T04:57:31.290Z,12.00
2019-02-18T04:59:58.867Z,14.10
2019-02-18T05:02:27.266Z,15.03
2019-02-18T05:04:55.737Z,13.97
2019-02-18T05:07:24.130Z,13.80
2019-02-18T05:09:52.527Z,14.67
2019-02-18T05:12:20.945Z,13.97
2019-02-18T05:14:49.357Z,16.00
2019-02-18T05:17:17.774Z,14.33
2019-02-18T05:19:46.166Z,15.40
2019-02-18T05:22:14.858Z,12.93
2019-02-18T05:24:43.299Z,12.00
2019-02-18T05:27:11.690Z,12.80
2019-02-18T05:29:40.126Z,12.77
2019-02-18T05:32:08.527Z,13.00
2019-02-18T05:34:36.990Z,14.33
2019-02-18T05:37:05.407Z,11.30
2019-02-18T05:39:33.801Z,13.83
2019-02-18T05:42:02.214Z,11.93
2019-02-18T05:44:30.635Z,13.83
2019-02-18T05:46:59.022Z,13.97
2019-02-18T05:49:27.668Z,12.67
2019-02-18T05:51:56.078Z,15.03
2019-02-18T05:54:24.474Z,14.17
2019-02-18T05:56:52.970Z,11.80
2019-02-18T05:59:21.454Z,11.83
2019-02-18T06:01:49.851Z,12.40
2019-02-18T06:04:18.262Z,13.30
2019-02-18T06:06:46.663Z,11.53
2019-02-18T06:09:15.072Z,12.60
2019-02-18T06:11:43.486Z,12.73
2019-02-18T06:14:11.903Z,15.27
2019-02-18T06:16:40.315Z,12.57
2019-02-18T06:19:08.702Z,12.30
2019-02-18T06:21:37.167Z,12.60
2019-02-18T06:24:05.564Z,12.87
2019-02-18T06:26:34.031Z,16.00
2019-02-18T06:29:02.454Z,10.40
2019-02-18T06:31:30.881Z,16.33
2019-02-18T06:33:59.548Z,14.03
2019-02-18T06:36:28.039Z,14.13
2019-02-18T06:38:57.739Z,15.17
2019-02-18T06:41:26.330Z,18.10
2019-02-18T06:43:54.751Z,18.57
2019-02-18T06:46:30.734Z,13.80
2019-02-18T06:49:00.797Z,17.53
2019-02-18T06:51:29.215Z,15.97
2019-02-18T06:53:57.611Z,18.60
2019-02-18T06:56:30.338Z,35.33
2019-02-18T06:59:00.388Z,29.90
2019-02-18T07:01:30.426Z,28.47
2019-02-18T07:04:03.162Z,30.50
2019-02-18T07:06:42.034Z,28.00
2019-02-18T07:09:12.095Z,22.47
2019-02-18T07:11:54.146Z,22.17
2019-02-18T07:14:22.572Z,28.87
2019-02-18T07:16:51.041Z,23.13
2019-02-18T07:19:19.458Z,21.47
2019-02-18T07:21:48.193Z,20.23
2019-02-18T07:24:16.609Z,18.47
2019-02-18T07:26:45.074Z,20.53
2019-02-18T07:29:13.493Z,19.53
2019-02-18T07:31:41.888Z,18.73
2019-02-18T07:34:10.340Z,22.80
2019-02-18T07:36:38.803Z,22.40
2019-02-18T07:39:07.580Z,27.77
2019-02-18T07:41:36.027Z,28.17
2019-02-18T07:44:04.414Z,24.00
2019-02-18T07:46:33.106Z,26.57
2019-02-18T07:49:01.527Z,27.20
2019-02-18T07:51:29.918Z,24.07
2019-02-18T07:53:58.656Z,26.23
2019-02-18T07:56:27.070Z,28.83
2019-02-18T07:58:55.473Z,26.00
2019-02-18T08:01:23.894Z,24.20
2019-02-18T08:03:52.310Z,29.50
2019-02-18T08:06:20.780Z,26.77
2019-02-18T08:08:49.178Z,22.27
2019-02-18T08:11:17.597Z,21.70
2019-02-18T08:13:46.001Z,21.50
2019-02-18T08:16:14.399Z,21.83
2019-02-18T08:18:42.837Z,18.27
2019-02-18T08:21:11.257Z,13.43
2019-02-18T08:23:39.731Z,18.70
2019-02-18T08:26:08.318Z,16.57
2019-02-18T08:28:36.710Z,15.83
2019-02-18T08:31:05.129Z,20.27
2019-02-18T08:33:33.767Z,16.03
2019-02-18T08:36:02.196Z,17.43
2019-02-18T08:38:30.581Z,18.07
2019-02-18T08:40:58.979Z,15.47
2019-02-18T08:43:27.399Z,16.80
2019-02-18T08:45:55.817Z,15.27
2019-02-18T08:48:24.487Z,13.97
2019-02-18T08:50:53.129Z,12.30
2019-02-18T08:53:21.523Z,13.77
2019-02-18T08:55:49.915Z,14.13
2019-02-18T08:58:18.339Z,12.03
2019-02-18T09:00:46.750Z,10.40
2019-02-18T09:03:15.219Z,17.17
2019-02-18T09:05:43.634Z,9.90
2019-02-18T09:08:12.027Z,13.17
2019-02-18T09:10:40.454Z,11.93
2019-02-18T09:13:08.838Z,12.60
2019-02-18T09:15:37.315Z,11.23
2019-02-18T09:18:05.723Z,11.97
2019-02-18T09:20:34.124Z,10.70
2019-02-18T09:23:04.163Z,11.33
2019-02-18T09:25:46.250Z,10.90
2019-02-18T09:28:14.654Z,14.03
2019-02-18T09:30:44.690Z,15.27
2019-02-18T09:33:13.107Z,12.10
2019-02-18T09:35:41.505Z,13.40
2019-02-18T09:38:09.898Z,11.57
2019-02-18T09:43:08.505Z,9.93
2019-02-18T09:45:37.287Z,13.40
2019-02-18T09:48:05.771Z,11.77
2019-02-18T09:50:34.167Z,12.73
2019-02-18T09:53:02.683Z,13.60
2019-02-18T09:55:31.136Z,11.27
2019-02-18T09:57:59.531Z,13.70
2019-02-18T10:00:27.946Z,12.20
2019-02-18T10:03:15.673Z,13.93
2019-02-18T10:05:44.138Z,11.37
2019-02-18T10:08:12.552Z,11.83
2019-02-18T10:10:40.938Z,16.47
2019-02-18T10:13:09.381Z,12.93
2019-02-18T10:15:37.764Z,12.23
2019-02-18T10:18:06.204Z,13.67
2019-02-18T10:20:34.623Z,14.50
2019-02-18T10:23:03.011Z,11.70
2019-02-18T10:25:31.421Z,11.90
2019-02-18T10:27:59.851Z,11.50
2019-02-18T10:30:28.322Z,11.97
2019-02-18T10:32:56.932Z,12.13
2019-02-18T10:35:26.499Z,12.07
2019-02-18T10:37:55.524Z,11.37
2019-02-18T10:40:24.098Z,13.83
2019-02-18T10:42:55.570Z,13.57
2019-02-18T10:45:23.990Z,12.20
2019-02-18T10:47:52.420Z,12.53
2019-02-18T10:50:20.786Z,13.33
2019-02-18T10:52:49.195Z,11.17
2019-02-18T10:55:37.322Z,11.00
2019-02-18T10:58:05.792Z,13.97
2019-02-18T11:00:34.262Z,12.73
2019-02-18T11:03:02.667Z,10.93
2019-02-18T11:05:31.051Z,12.97
2019-02-18T11:07:59.771Z,14.40
2019-02-18T11:10:28.165Z,11.50
2019-02-18T11:13:15.932Z,9.83
2019-02-18T11:15:44.351Z,9.03
2019-02-18T11:18:12.737Z,13.93
2019-02-18T11:20:41.155Z,11.73
2019-02-18T11:23:09.559Z,9.90
2019-02-18T11:25:37.996Z,13.47
2019-02-18T11:28:06.468Z,8.67
2019-02-18T11:30:34.935Z,8.33
2019-02-18T11:33:03.358Z,9.17
2019-02-18T11:35:31.752Z,8.43
2019-02-18T11:38:00.344Z,10.87
2019-02-18T11:40:29.086Z,8.97
2019-02-18T11:42:57.589Z,11.33
2019-02-18T11:45:26.071Z,9.50
2019-02-18T11:47:54.466Z,9.33
2019-02-18T11:50:22.876Z,12.03
2019-02-18T11:52:51.595Z,11.17
2019-02-18T11:55:19.994Z,7.57
2019-02-18T11:57:48.407Z,9.60
2019-02-18T12:00:17.081Z,9.23
2019-02-18T12:02:45.544Z,9.13
2019-02-18T12:05:14.229Z,9.03
2019-02-18T12:07:42.626Z,10.20
2019-02-18T12:10:12.502Z,9.83
2019-02-18T12:12:41.278Z,10.50
2019-02-18T12:15:16.135Z,9.70
2019-02-18T12:17:44.542Z,6.93
2019-02-18T12:20:14.079Z,6.90
2019-02-18T12:22:42.461Z,8.37
2019-02-18T12:25:12.323Z,9.23
2019-02-18T12:27:41.230Z,8.00
2019-02-18T12:30:12.462Z,8.73
2019-02-18T12:32:40.863Z,11.07
2019-02-18T12:35:09.442Z,9.80
2019-02-18T12:37:54.899Z,10.17
2019-02-18T12:40:15.880Z,10.83
2019-02-18T12:42:44.290Z,9.10
2019-02-18T12:45:13.255Z,11.07
2019-02-18T12:47:42.042Z,11.23
2019-02-18T12:50:11.698Z,12.83
2019-02-18T12:52:40.378Z,10.43
2019-02-18T12:55:10.240Z,12.30
2019-02-18T12:57:39.139Z,11.27
2019-02-18T13:00:10.856Z,10.73
2019-02-18T13:02:44.085Z,12.47
2019-02-18T13:05:10.081Z,10.03
2019-02-18T13:07:38.554Z,13.10
2019-02-18T13:10:08.965Z,7.10
2019-02-18T13:12:37.444Z,8.57
2019-02-18T13:15:17.833Z,8.07
2019-02-18T13:17:46.388Z,8.23
2019-02-18T13:20:14.855Z,8.07
2019-02-18T13:22:43.351Z,9.50
2019-02-18T13:25:12.186Z,6.20
2019-02-18T13:27:40.586Z,7.67
2019-02-18T13:30:12.064Z,8.23
2019-02-18T13:32:40.463Z,7.90
2019-02-18T13:35:08.871Z,10.77
2019-02-18T13:37:37.266Z,7.67
2019-02-18T13:40:06.834Z,8.93
2019-02-18T13:42:35.230Z,6.00
2019-02-18T13:45:05.186Z,7.37
2019-02-18T13:47:33.611Z,9.13
2019-02-18T13:50:02.082Z,7.20
2019-02-18T13:52:30.524Z,5.37
2019-02-18T13:54:58.909Z,5.17
2019-02-18T13:57:27.550Z,7.83
2019-02-18T13:59:56.346Z,6.03
2019-02-18T14:02:24.765Z,6.03
2019-02-18T14:04:53.154Z,8.03
2019-02-18T14:07:21.553Z,5.90
2019-02-18T14:09:49.986Z,8.77
2019-02-18T14:12:18.395Z,8.10
2019-02-18T14:14:46.782Z,5.83
2019-02-18T14:17:15.465Z,8.03
2019-02-18T14:19:43.882Z,5.00
2019-02-18T14:22:12.620Z,4.73
2019-02-18T14:24:41.014Z,6.47
2019-02-18T14:27:09.430Z,6.73
2019-02-18T14:29:37.887Z,6.47
2019-02-18T14:32:06.671Z,6.13
2019-02-18T14:34:35.069Z,6.73
2019-02-18T14:37:03.475Z,7.60
2019-02-18T14:39:31.881Z,7.53
2019-02-18T14:42:00.269Z,5.17
2019-02-18T14:44:28.666Z,5.27
2019-02-18T14:46:57.286Z,7.00
2019-02-18T14:49:25.678Z,5.07
2019-02-18T14:51:54.071Z,6.87
2019-02-18T14:54:22.852Z,9.20
2019-02-18T14:56:51.503Z,4.93
2019-02-18T14:59:19.898Z,5.37
2019-02-18T15:01:48.339Z,7.00
2019-02-18T15:04:17.087Z,11.70
2019-02-18T15:06:45.551Z,9.63
2019-02-18T15:09:14.350Z,11.10
2019-02-18T15:12:02.078Z,9.87
2019-02-18T15:14:31.067Z,6.80
2019-02-18T15:16:59.602Z,6.97
2019-02-18T15:19:28.025Z,6.03
2019-02-18T15:21:56.453Z,8.90
2019-02-18T15:24:25.191Z,6.03
2019-02-18T15:26:53.860Z,9.03
2019-02-18T15:29:22.269Z,8.17
2019-02-18T15:31:51.049Z,8.73
2019-02-18T15:34:19.452Z,8.27
2019-02-18T15:36:47.881Z,7.87
2019-02-18T15:39:16.274Z,8.53
2019-02-18T15:41:44.679Z,10.33
2019-02-18T15:44:13.090Z,9.20
2019-02-18T15:46:42.050Z,8.97
2019-02-18T15:49:10.727Z,7.50
2019-02-18T15:51:39.117Z,8.17
2019-02-18T15:54:07.531Z,11.57
2019-02-18T15:56:35.952Z,7.17
2019-02-18T15:59:04.433Z,9.70
2019-02-18T16:01:32.851Z,7.13
2019-02-18T16:04:01.326Z,8.93
2019-02-18T16:06:29.749Z,9.40
2019-02-18T16:08:58.442Z,8.70
2019-02-18T16:11:26.952Z,9.90
2019-02-18T16:13:55.490Z,8.83
2019-02-18T16:16:23.880Z,8.53
2019-02-18T16:18:52.670Z,9.40
2019-02-18T16:21:21.158Z,10.57
2019-02-18T16:23:49.544Z,9.23
2019-02-18T16:26:17.929Z,11.83
2019-02-18T16:28:46.383Z,6.37
2019-02-18T16:31:14.848Z,11.10
2019-02-18T16:33:43.342Z,11.70
2019-02-18T16:36:11.746Z,11.67
2019-02-18T16:38:40.246Z,12.10
2019-02-18T16:41:08.642Z,10.50
2019-02-18T16:43:37.506Z,11.57
2019-02-18T16:46:05.981Z,13.57
2019-02-18T16:48:34.835Z,12.77
2019-02-18T16:51:03.241Z,8.70
2019-02-18T16:53:31.634Z,9.33
2019-02-18T16:56:00.046Z,12.93
2019-02-18T16:58:28.464Z,11.43
2019-02-18T17:00:57.843Z,14.83
2019-02-18T17:03:26.499Z,23.20
2019-02-18T17:05:55.374Z,20.07
2019-02-18T17:08:23.796Z,22.80
2019-02-18T17:10:52.194Z,25.83
2019-02-18T17:13:20.582Z,18.67
2019-02-18T17:15:49.023Z,17.47
2019-02-18T17:18:17.413Z,16.13
2019-02-18T17:20:45.810Z,18.10
2019-02-18T17:23:14.234Z,12.40
2019-02-18T17:25:42.634Z,14.93
2019-02-18T17:28:11.102Z,16.67
2019-02-18T17:30:39.555Z,17.43
2019-02-18T17:33:07.951Z,14.27
2019-02-18T17:35:36.358Z,19.10
2019-02-18T17:38:05.236Z,23.70
2019-02-18T17:40:33.703Z,26.43
2019-02-18T17:43:02.556Z,15.03
2019-02-18T17:45:31.246Z,21.93
2019-02-18T17:47:59.935Z,19.80
2019-02-18T17:50:28.339Z,16.70
2019-02-18T17:52:58.181Z,21.37
2019-02-18T17:55:26.660Z,25.23
2019-02-18T17:57:55.066Z,28.93
2019-02-18T18:00:28.091Z,22.03
2019-02-18T18:02:56.614Z,21.57
2019-02-18T18:05:25.224Z,19.30
2019-02-18T18:07:53.833Z,18.47
2019-02-18T18:10:22.502Z,18.03
2019-02-18T18:12:50.890Z,17.87
2019-02-18T18:15:20.244Z,18.13
2019-02-18T18:17:48.630Z,15.87
2019-02-18T18:20:17.034Z,19.07
2019-02-18T18:22:45.522Z,16.50
2019-02-18T18:25:14.851Z,16.40
2019-02-18T18:27:43.254Z,18.50
2019-02-18T18:30:18.713Z,16.07
2019-02-18T18:32:47.129Z,16.20
2019-02-18T18:35:15.529Z,17.80
2019-02-18T18:37:44.227Z,17.90
2019-02-18T18:40:18.172Z,17.73
2019-02-18T18:42:46.788Z,14.87
2019-02-18T18:45:16.542Z,13.33
2019-02-18T18:47:45.117Z,18.60
2019-02-18T18:50:16.321Z,17.80
2019-02-18T18:52:44.998Z,17.57
2019-02-18T18:55:13.466Z,16.37
2019-02-18T18:57:41.874Z,16.07
2019-02-18T19:00:14.398Z,20.93
2019-02-18T19:02:42.789Z,17.17
2019-02-18T19:05:11.185Z,17.57
2019-02-18T19:07:39.982Z,18.80
2019-02-18T19:10:09.618Z,17.57
2019-02-18T19:12:38.099Z,16.87
2019-02-18T19:15:12.537Z,19.40
2019-02-18T19:17:40.950Z,18.40
2019-02-18T19:20:11.596Z,17.37
2019-02-18T19:22:40.174Z,20.03
2019-02-18T19:25:10.313Z,15.87
2019-02-18T19:27:38.750Z,18.63
2019-02-18T19:30:19.042Z,17.43
2019-02-18T19:32:47.730Z,15.63
2019-02-18T19:35:16.135Z,16.67
2019-02-18T19:37:44.807Z,20.00
2019-02-18T19:40:14.195Z,20.37
2019-02-18T19:42:42.591Z,22.27
2019-02-18T19:45:14.206Z,24.23
2019-02-18T19:47:42.987Z,24.83
2019-02-18T19:50:11.512Z,23.70
2019-02-18T19:52:39.978Z,26.53
2019-02-18T19:55:10.215Z,22.80
2019-02-18T19:57:38.606Z,24.43
2019-02-18T20:00:13.386Z,24.60
2019-02-18T20:02:41.782Z,21.27
2019-02-18T20:05:10.448Z,26.00
2019-02-18T20:07:38.879Z,23.20
2019-02-18T20:10:09.940Z,22.57
2019-02-18T20:12:38.619Z,22.80
2019-02-18T20:15:15.252Z,29.40
2019-02-18T20:17:43.647Z,27.77
2019-02-18T20:20:18.429Z,28.40
2019-02-18T20:22:46.817Z,33.63
2019-02-18T20:25:15.237Z,27.63
2019-02-18T20:27:44.131Z,28.27
2019-02-18T20:30:16.530Z,29.10
2019-02-18T20:32:44.942Z,34.57
2019-02-18T20:35:13.523Z,29.70
2019-02-18T20:37:41.938Z,27.43
2019-02-18T20:40:11.371Z,24.30
2019-02-18T20:42:40.175Z,25.23
2019-02-18T20:45:13.737Z,26.63
2019-02-18T20:47:42.204Z,22.10
2019-02-18T20:50:12.356Z,23.17
2019-02-18T20:52:40.792Z,26.30
2019-02-18T20:55:14.840Z,30.10
2019-02-18T20:57:43.316Z,22.10
2019-02-18T21:00:15.222Z,26.40
2019-02-18T21:02:43.626Z,24.67
2019-02-18T21:05:12.035Z,26.20
2019-02-18T21:07:40.446Z,25.90
2019-02-18T21:10:19.963Z,23.97
2019-02-18T21:12:48.433Z,22.80
2019-02-18T21:15:16.896Z,26.13
2019-02-18T21:17:45.305Z,26.70
2019-02-18T21:20:14.648Z,24.47
2019-02-18T21:22:43.037Z,32.73
2019-02-18T21:25:11.774Z,26.67
2019-02-18T21:27:40.355Z,26.23
2019-02-18T21:30:14.382Z,28.77
2019-02-18T21:32:42.856Z,29.03
2019-02-18T21:35:11.565Z,28.13
2019-02-18T21:37:40.534Z,26.93
2019-02-18T21:40:13.127Z,26.90
2019-02-18T21:42:41.540Z,28.33
2019-02-18T21:45:12.175Z,23.37
2019-02-18T21:47:40.590Z,23.93
2019-02-18T21:50:10.926Z,26.80
2019-02-18T21:52:39.709Z,23.33
2019-02-18T21:55:11.865Z,25.33
2019-02-18T21:57:40.254Z,26.47
2019-02-18T22:00:18.632Z,21.83
2019-02-18T22:02:47.259Z,25.53
2019-02-18T22:05:16.142Z,28.97
2019-02-18T22:07:44.711Z,23.43
2019-02-18T22:10:13.906Z,28.70
2019-02-18T22:12:43.003Z,23.97
2019-02-18T22:15:13.742Z,20.90
2019-02-18T22:17:42.155Z,23.67
2019-02-18T22:20:11.910Z,23.30
2019-02-18T22:22:40.377Z,20.70
2019-02-18T22:25:33.224Z,22.20
2019-02-18T22:28:01.637Z,25.67
2019-02-18T22:30:30.402Z,20.90
2019-02-18T22:32:59.942Z,21.13
2019-02-18T22:35:28.354Z,18.77
2019-02-18T22:37:56.827Z,24.53
2019-02-18T22:40:25.206Z,27.70
2019-02-18T22:42:53.607Z,24.37
2019-02-18T22:45:22.323Z,26.87
2019-02-18T22:47:50.750Z,23.03
2019-02-18T22:50:19.166Z,30.37
2019-02-18T22:52:47.577Z,23.33
2019-02-18T22:55:16.009Z,24.77
2019-02-18T22:57:44.406Z,27.57
2019-02-18T23:00:27.036Z,19.30
2019-02-18T23:02:55.925Z,24.10
2019-02-18T23:05:24.386Z,21.77
2019-02-18T23:07:52.814Z,29.10
2019-02-18T23:10:21.344Z,28.37
2019-02-18T23:12:49.813Z,26.97
2019-02-18T23:15:18.254Z,28.90
2019-02-18T23:17:46.673Z,27.83
2019-02-18T23:20:15.370Z,30.07
2019-02-18T23:22:43.861Z,29.10
2019-02-18T23:25:12.272Z,26.47
2019-02-18T23:27:40.939Z,26.53
2019-02-18T23:30:09.502Z,23.97
2019-02-18T23:32:38.207Z,23.53
2019-02-18T23:35:06.710Z,21.47
2019-02-18T23:37:35.135Z,25.10
2019-02-18T23:40:04.326Z,21.13
2019-02-18T23:42:33.201Z,21.87
2019-02-18T23:45:01.595Z,16.67
2019-02-18T23:47:30.030Z,18.60
2019-02-18T23:49:58.448Z,20.90
2019-02-18T23:52:26.870Z,23.07
2019-02-18T23:54:55.278Z,21.57
2019-02-18T23:57:23.760Z,20.13
2019-02-18T23:59:52.184Z,21.83
